»·PEaware :: N24AS KAPA-KASE

N24AS :: KAPA-KASE

FLIGHT INFORMATION

Flight Status: Arrived
Operator: Privately registered:
United States
More flights under this callsign
Pilot: Andrew S. (20703)
Aircraft: CIRRUS SR-22 TURBO
(S22T)
More flights by this aircraft type
Origin: KAPA Centennial
United States
Destination: KASE Aspen-Pitkin Co/Sardy
United States
More flights between these airports :: More routes between these airports
Route: +ROCKI5 DBL
File this flight plan on PilotEdge
Remarks:
Altitude:
(Current/Filed)
18,000ft
Speed:
(Current/Filed)
175kts
Departed: 13-Sep-20 06:49 PM
Arrived: 13-Sep-20 07:37 PM
Distance/Time
Traveled:
96nm/0:48
Distance/Time
To Go:
Arrived

Flight Plot

Page will automatically refresh every two minutes.

Flight plan parsing failed; only flown route is shown


Map Options




Map Legend


Flown Route
Filed Route
Departure Airport
Arrival Airport
Navaid (VOR, NDB)
Fix

Horizontal Profiles

Position Reports

Time Latitude Longitude Heading Altitude Ground
Speed
13-Sep-20 18:27 39.577117 -104.848764 270 5887ft 0kts
13-Sep-20 18:28 39.577117 -104.848764 270 5887ft 0kts
13-Sep-20 18:29 39.577117 -104.848764 270 5887ft 0kts
13-Sep-20 18:30 39.577117 -104.848764 270 5887ft 0kts
13-Sep-20 18:31 39.577117 -104.848764 270 5887ft 0kts
13-Sep-20 18:32 39.577117 -104.848764 270 5887ft 0kts
13-Sep-20 18:33 39.577117 -104.848764 270 5887ft 0kts
13-Sep-20 18:34 39.577117 -104.848764 270 5887ft 0kts
13-Sep-20 18:35 39.577117 -104.848764 270 5887ft 0kts
13-Sep-20 18:36 39.577117 -104.848764 270 5887ft 0kts
13-Sep-20 18:37 39.577117 -104.848764 270 5887ft 0kts
13-Sep-20 18:38 39.577117 -104.848764 270 5887ft 0kts
13-Sep-20 18:39 39.577117 -104.848764 269 5887ft 0kts
13-Sep-20 18:40 39.577117 -104.848764 269 5887ft 0kts
13-Sep-20 18:41 39.577661 -104.849711 352 5887ft 3kts
13-Sep-20 18:42 39.583934 -104.850060 5 5887ft 0kts
13-Sep-20 18:43 39.583934 -104.850060 5 5887ft 0kts
13-Sep-20 18:44 39.583962 -104.850061 354 5887ft 0kts
13-Sep-20 18:45 39.583962 -104.850061 354 5887ft 0kts
13-Sep-20 18:46 39.584090 -104.850287 270 5887ft 4kts
13-Sep-20 18:47 39.583587 -104.851426 165 5887ft 5kts
13-Sep-20 18:48 39.558567 -104.849787 177 6512ft 128kts
13-Sep-20 18:49 39.517633 -104.847904 177 6998ft 174kts
13-Sep-20 18:50 39.466681 -104.844984 177 6984ft 187kts
13-Sep-20 18:51 39.422721 -104.823912 89 7073ft 182kts
13-Sep-20 18:52 39.456921 -104.807944 357 8722ft 148kts
13-Sep-20 18:53 39.497129 -104.810390 357 10110ft 144kts
13-Sep-20 18:54 39.537986 -104.810790 359 11326ft 150kts
13-Sep-20 18:55 39.580663 -104.812460 357 12513ft 154kts
13-Sep-20 18:57 39.623792 -104.814258 357 13638ft 157kts
13-Sep-20 18:58 39.662305 -104.828818 281 14721ft 155kts
13-Sep-20 18:59 39.656781 -104.883579 265 15774ft 157kts
13-Sep-20 19:00 39.657784 -104.946061 272 15988ft 189kts
13-Sep-20 19:01 39.660807 -105.015981 273 15979ft 197kts
13-Sep-20 19:02 39.664084 -105.087804 273 15978ft 200kts
13-Sep-20 19:03 39.667310 -105.159303 273 15978ft 198kts
13-Sep-20 19:04 39.670488 -105.230783 273 15978ft 198kts
13-Sep-20 19:05 39.673611 -105.302179 273 16004ft 197kts
13-Sep-20 19:06 39.676689 -105.373532 273 16009ft 198kts
13-Sep-20 19:07 39.679716 -105.444714 273 16064ft 197kts
13-Sep-20 19:08 39.682653 -105.514813 273 16119ft 197kts
13-Sep-20 19:09 39.685590 -105.585937 273 16175ft 196kts
13-Sep-20 19:10 39.688479 -105.656944 273 16195ft 197kts
13-Sep-20 19:10 39.678810 -105.715007 255 16195ft 198kts
13-Sep-20 19:12 39.662953 -105.795221 255 16208ft 194kts
13-Sep-20 19:13 39.649445 -105.863301 255 16242ft 191kts
13-Sep-20 19:14 39.635975 -105.930966 255 16305ft 190kts
13-Sep-20 19:14 39.624953 -105.986172 255 16348ft 190kts
13-Sep-20 19:15 39.611615 -106.052779 255 16391ft 191kts
13-Sep-20 19:17 39.595930 -106.130836 255 16411ft 192kts
13-Sep-20 19:17 39.584643 -106.186823 255 16411ft 192kts
13-Sep-20 19:18 39.571006 -106.254262 255 16411ft 193kts
13-Sep-20 19:20 39.556790 -106.324334 255 16410ft 193kts
13-Sep-20 19:20 39.545280 -106.380901 255 16336ft 195kts
13-Sep-20 19:21 39.531140 -106.450301 255 16087ft 198kts
13-Sep-20 19:22 39.517076 -106.518975 255 15988ft 195kts
13-Sep-20 19:23 39.503116 -106.586919 255 15929ft 193kts
13-Sep-20 19:24 39.494254 -106.654920 268 15759ft 199kts
13-Sep-20 19:25 39.492935 -106.730940 268 15091ft 216kts
13-Sep-20 19:26 39.491672 -106.809898 269 14391ft 217kts
13-Sep-20 19:27 39.492709 -106.884635 287 13662ft 201kts
13-Sep-20 19:28 39.471471 -106.934618 203 13620ft 183kts
13-Sep-20 19:29 39.433281 -106.895285 131 13526ft 170kts
13-Sep-20 19:30 39.390762 -106.889063 177 12844ft 126kts
13-Sep-20 19:31 39.359958 -106.886342 176 12203ft 110kts
13-Sep-20 19:32 39.325747 -106.886518 184 11361ft 150kts
13-Sep-20 19:33 39.290237 -106.888708 186 10742ft 100kts
13-Sep-20 19:34 39.262674 -106.887722 155 9180ft 104kts
13-Sep-20 19:35 39.237474 -106.875695 161 7936ft 82kts
13-Sep-20 19:36 39.225653 -106.869452 58 7839ft 13kts
13-Sep-20 19:37 39.226015 -106.868700 53 7839ft 0kts

Navigation Log

Ident Type
Flight plan parsing failed, navigation log unavailable